createdAt,value
2023-01-08T00:01:17.067Z,96135.88
2023-01-08T00:03:44.413Z,96127.13
2023-01-08T00:06:15.298Z,96126.50
2023-01-08T00:08:42.850Z,96127.53
2023-01-08T00:11:10.288Z,96124.38
2023-01-08T00:13:37.756Z,96116.66
2023-01-08T00:16:14.759Z,96109.84
2023-01-08T00:18:41.620Z,96099.47
2023-01-08T00:21:08.499Z,96104.66
2023-01-08T00:23:36.528Z,96112.34
2023-01-08T00:26:06.259Z,96085.41
2023-01-08T00:28:33.793Z,96097.34
2023-01-08T00:31:04.010Z,96086.75
2023-01-08T00:33:31.669Z,96088.53
2023-01-08T00:35:58.745Z,96094.47
2023-01-08T00:38:29.626Z,96080.53
2023-01-08T00:40:57.442Z,96076.66
2023-01-08T00:43:24.309Z,96072.72
2023-01-08T00:45:54.039Z,96066.31
2023-01-08T00:48:25.081Z,96069.16
2023-01-08T00:50:53.834Z,96068.25
2023-01-08T00:53:22.034Z,96057.06
2023-01-08T00:55:49.384Z,96060.19
2023-01-08T00:58:16.739Z,96067.28
2023-01-08T01:00:43.605Z,96064.34
2023-01-08T01:03:10.483Z,96069.53
2023-01-08T01:05:37.310Z,96067.63
2023-01-08T01:08:04.573Z,96070.78
2023-01-08T01:10:31.416Z,96067.53
2023-01-08T01:12:58.272Z,96067.47
2023-01-08T01:15:25.518Z,96065.88
2023-01-08T01:17:52.344Z,96069.78
2023-01-08T01:20:19.268Z,96064.25
2023-01-08T01:22:46.129Z,96075.78
2023-01-08T01:25:12.950Z,96074.97
2023-01-08T01:27:39.879Z,96067.19
2023-01-08T01:30:08.199Z,96072.00
2023-01-08T01:32:35.388Z,96064.19
2023-01-08T01:35:02.755Z,96061.88
2023-01-08T01:37:29.564Z,96067.06
2023-01-08T01:39:56.636Z,96061.84
2023-01-08T01:42:41.507Z,96053.81
2023-01-08T01:45:31.333Z,96065.19
2023-01-08T01:48:12.247Z,96072.03
2023-01-08T01:50:47.236Z,96078.56
2023-01-08T01:53:27.595Z,96062.34
2023-01-08T01:55:55.222Z,96065.59
2023-01-08T01:58:28.949Z,96066.69
2023-01-08T02:00:58.809Z,96051.63
2023-01-08T02:03:30.991Z,96032.78
2023-01-08T02:06:06.677Z,96024.53
2023-01-08T02:09:07.339Z,96039.44
2023-01-08T02:12:16.561Z,96045.72
2023-01-08T02:15:13.099Z,96049.47
2023-01-08T02:18:07.914Z,96032.03
2023-01-08T02:20:38.202Z,96034.00
2023-01-08T02:23:33.069Z,96031.72
2023-01-08T02:26:26.203Z,96032.63
2023-01-08T02:29:00.151Z,96025.31
2023-01-08T02:31:29.677Z,96030.34
2023-01-08T02:33:56.838Z,96015.16
2023-01-08T02:36:41.924Z,96002.72
2023-01-08T02:39:30.070Z,96004.13
2023-01-08T02:42:28.960Z,96000.44
2023-01-08T02:45:38.397Z,95999.38
2023-01-08T02:48:45.632Z,95994.88
2023-01-08T02:51:34.462Z,95992.91
2023-01-08T02:54:13.452Z,95996.72
2023-01-08T02:56:46.833Z,95991.41
2023-01-08T02:59:15.379Z,95985.13
2023-01-08T03:01:43.671Z,95984.25
2023-01-08T03:04:22.441Z,95985.44
2023-01-08T03:06:50.409Z,95986.38
2023-01-08T03:09:18.735Z,95982.91
2023-01-08T03:11:57.941Z,95986.78
2023-01-08T03:14:36.645Z,95992.53
2023-01-08T03:17:52.946Z,95986.94
2023-01-08T03:20:22.965Z,95981.31
2023-01-08T03:22:57.563Z,95975.41
2023-01-08T03:25:28.206Z,95976.00
2023-01-08T03:28:00.577Z,95968.81
2023-01-08T03:30:30.382Z,95961.06
2023-01-08T03:33:00.167Z,95972.41
2023-01-08T03:35:28.365Z,95972.28
2023-01-08T03:38:13.254Z,95978.50
2023-01-08T03:40:46.335Z,95975.59
2023-01-08T03:43:13.341Z,95967.69
2023-01-08T03:45:49.841Z,95974.31
2023-01-08T03:48:19.483Z,95966.22
2023-01-08T03:50:46.732Z,95960.38
2023-01-08T03:53:13.606Z,95950.25
2023-01-08T03:55:40.410Z,95940.06
2023-01-08T03:58:07.222Z,95941.69
2023-01-08T04:00:34.122Z,95927.47
2023-01-08T04:03:00.915Z,95920.72
2023-01-08T04:05:27.748Z,95927.56
2023-01-08T04:07:58.146Z,95925.47
2023-01-08T04:10:25.750Z,95920.34
2023-01-08T04:12:52.884Z,95922.41
2023-01-08T04:15:20.799Z,95918.66
2023-01-08T04:17:47.652Z,95923.22
2023-01-08T04:20:14.436Z,95918.25
2023-01-08T04:22:41.228Z,95924.84
2023-01-08T04:25:08.570Z,95918.44
2023-01-08T04:27:35.419Z,95904.19
2023-01-08T04:30:02.451Z,95900.97
2023-01-08T04:32:29.261Z,95902.59
2023-01-08T04:34:56.149Z,95906.16
2023-01-08T04:37:22.988Z,95898.66
2023-01-08T04:39:49.913Z,95891.50
2023-01-08T04:42:16.752Z,95901.25
2023-01-08T04:44:43.636Z,95887.66
2023-01-08T04:47:10.490Z,95878.59
2023-01-08T04:49:37.425Z,95873.09
2023-01-08T04:52:04.507Z,95871.97
2023-01-08T04:54:31.287Z,95878.59
2023-01-08T04:56:58.131Z,95870.09
2023-01-08T04:59:24.939Z,95871.94
2023-01-08T05:01:51.934Z,95873.47
2023-01-08T05:04:18.790Z,95879.25
2023-01-08T05:06:45.617Z,95874.16
2023-01-08T05:09:12.435Z,95879.13
2023-01-08T05:11:39.472Z,95881.88
2023-01-08T05:14:06.288Z,95878.81
2023-01-08T05:16:33.349Z,95877.88
2023-01-08T05:19:00.171Z,95876.72
2023-01-08T05:21:26.965Z,95874.97
2023-01-08T05:23:53.878Z,95880.13
2023-01-08T05:26:20.723Z,95886.66
2023-01-08T05:28:47.678Z,95878.22
2023-01-08T05:31:15.406Z,95878.53
2023-01-08T05:33:42.394Z,95885.03
2023-01-08T05:36:12.378Z,95876.94
2023-01-08T05:38:39.931Z,95865.63
2023-01-08T05:41:07.609Z,95872.56
2023-01-08T05:43:35.238Z,95860.78
2023-01-08T05:46:04.025Z,95852.25
2023-01-08T05:48:33.747Z,95858.28
2023-01-08T05:51:00.902Z,95854.78
2023-01-08T05:53:27.804Z,95860.31
2023-01-08T05:56:02.793Z,95861.25
2023-01-08T05:58:30.459Z,95859.59
2023-01-08T06:01:23.597Z,95863.28
2023-01-08T06:03:50.483Z,95863.78
2023-01-08T06:06:17.650Z,95859.13
2023-01-08T06:08:44.428Z,95867.91
2023-01-08T06:11:11.985Z,95865.66
2023-01-08T06:13:42.993Z,95874.72
2023-01-08T06:16:10.840Z,95882.69
2023-01-08T06:18:37.701Z,95873.09
2023-01-08T06:21:05.267Z,95871.69
2023-01-08T06:23:33.312Z,95875.72
2023-01-08T06:26:04.152Z,95873.81
2023-01-08T06:28:31.433Z,95880.09
2023-01-08T06:31:03.561Z,95870.25
2023-01-08T06:33:31.486Z,95879.00
2023-01-08T06:36:04.372Z,95872.84
2023-01-08T06:38:33.203Z,95869.25
2023-01-08T06:41:08.535Z,95864.72
2023-01-08T06:43:36.147Z,95873.44
2023-01-08T06:46:08.758Z,95872.41
2023-01-08T06:48:36.549Z,95860.75
2023-01-08T06:51:05.123Z,95862.28
2023-01-08T06:53:32.428Z,95867.38
2023-01-08T06:55:59.363Z,95888.38
2023-01-08T06:58:27.973Z,95889.91
2023-01-08T07:00:54.862Z,95874.28
2023-01-08T07:03:22.009Z,95880.47
2023-01-08T07:05:50.740Z,95888.91
2023-01-08T07:08:18.615Z,95878.72
2023-01-08T07:10:45.972Z,95873.84
2023-01-08T07:13:13.061Z,95863.97
2023-01-08T07:15:41.214Z,95879.13
2023-01-08T07:18:10.830Z,95876.25
2023-01-08T07:20:38.364Z,95881.16
2023-01-08T07:23:09.482Z,95881.25
2023-01-08T07:25:36.287Z,95868.28
2023-01-08T07:28:03.164Z,95885.84
2023-01-08T07:30:30.713Z,95889.41
2023-01-08T07:33:01.893Z,95899.84
2023-01-08T07:35:29.147Z,95890.16
2023-01-08T07:37:56.281Z,95887.72
2023-01-08T07:40:23.761Z,95881.91
2023-01-08T07:42:59.436Z,95881.59
2023-01-08T07:45:28.095Z,95869.13
2023-01-08T07:47:57.877Z,95869.41
2023-01-08T07:50:24.978Z,95872.66
2023-01-08T07:52:51.843Z,95866.47
2023-01-08T07:55:18.625Z,95857.25
2023-01-08T07:57:45.443Z,95857.75
2023-01-08T08:00:14.728Z,95862.47
2023-01-08T08:02:41.719Z,95864.84
2023-01-08T08:05:09.076Z,95853.84
2023-01-08T08:07:36.312Z,95845.78
2023-01-08T08:10:04.832Z,95867.19
2023-01-08T08:12:32.064Z,95884.72
2023-01-08T08:14:58.857Z,95866.22
2023-01-08T08:17:26.816Z,95873.38
2023-01-08T08:19:53.816Z,95868.84
2023-01-08T08:22:20.740Z,95866.22
2023-01-08T08:24:47.547Z,95882.47
2023-01-08T08:27:14.430Z,95873.69
2023-01-08T08:29:41.210Z,95878.56
2023-01-08T08:32:08.069Z,95877.09
2023-01-08T08:34:34.893Z,95880.03
2023-01-08T08:37:01.754Z,95874.34
2023-01-08T08:39:28.571Z,95877.56
2023-01-08T08:41:55.416Z,95874.81
2023-01-08T08:44:22.310Z,95876.88
2023-01-08T08:46:49.183Z,95866.63
2023-01-08T08:49:16.068Z,95862.41
2023-01-08T08:51:42.859Z,95870.16
2023-01-08T08:54:11.569Z,95888.56
2023-01-08T08:56:38.425Z,95883.94
2023-01-08T08:59:05.241Z,95869.72
2023-01-08T09:01:32.157Z,95878.69
2023-01-08T09:03:59.033Z,95874.28
2023-01-08T09:06:27.659Z,95874.78
2023-01-08T09:08:55.142Z,95864.56
2023-01-08T09:11:22.005Z,95866.25
2023-01-08T09:13:48.913Z,95868.19
2023-01-08T09:16:15.750Z,95870.19
2023-01-08T09:18:42.647Z,95862.31
2023-01-08T09:21:09.541Z,95872.88
2023-01-08T09:23:36.499Z,95875.34
2023-01-08T09:26:05.006Z,95874.63
2023-01-08T09:28:32.738Z,95869.47
2023-01-08T09:31:03.831Z,95874.34
2023-01-08T09:33:31.666Z,95873.50
2023-01-08T09:35:58.484Z,95881.50
2023-01-08T09:38:25.414Z,95880.75
2023-01-08T09:41:03.626Z,95887.19
2023-01-08T09:43:35.077Z,95887.38
2023-01-08T09:46:05.519Z,95876.25
2023-01-08T09:48:37.171Z,95883.66
2023-01-08T09:51:04.380Z,95881.63
2023-01-08T09:53:33.166Z,95872.63
2023-01-08T09:56:10.111Z,95877.03
2023-01-08T09:58:45.049Z,95870.91
2023-01-08T10:01:15.202Z,95863.09
2023-01-08T10:03:47.935Z,95853.44
2023-01-08T10:06:16.791Z,95827.78
2023-01-08T10:11:16.859Z,95806.16
2023-01-08T10:13:49.822Z,95797.63
2023-01-08T10:16:32.664Z,95810.13
2023-01-08T10:19:00.132Z,95822.09
2023-01-08T10:21:37.047Z,95819.38
2023-01-08T10:24:04.398Z,95822.91
2023-01-08T10:26:36.515Z,95818.63
2023-01-08T10:29:18.025Z,95821.88
2023-01-08T10:32:10.304Z,95829.56
2023-01-08T10:35:04.821Z,95815.13
2023-01-08T10:37:43.049Z,95807.91
2023-01-08T10:40:42.163Z,95811.50
2023-01-08T10:43:15.515Z,95789.59
2023-01-08T10:45:44.224Z,95799.34
2023-01-08T10:48:18.387Z,95813.25
2023-01-08T10:50:45.374Z,95806.09
2023-01-08T10:53:25.413Z,95800.78
2023-01-08T10:56:01.655Z,95782.59
2023-01-08T10:58:30.159Z,95773.19
2023-01-08T11:01:11.287Z,95781.16
2023-01-08T11:03:38.329Z,95775.50
2023-01-08T11:06:23.291Z,95787.47
2023-01-08T11:08:57.357Z,95785.97
2023-01-08T11:11:24.816Z,95796.25
2023-01-08T11:14:00.310Z,95814.69
2023-01-08T11:16:38.764Z,95820.03
2023-01-08T11:19:18.762Z,95819.00
2023-01-08T11:22:16.065Z,95801.59
2023-01-08T11:24:43.812Z,95805.56
2023-01-08T11:27:33.297Z,95799.09
2023-01-08T11:30:05.335Z,95792.28
2023-01-08T11:32:56.124Z,95779.03
2023-01-08T11:35:39.405Z,95769.81
2023-01-08T11:38:08.327Z,95755.50
2023-01-08T11:40:55.177Z,95742.59
2023-01-08T11:44:07.386Z,95730.06
2023-01-08T11:46:46.622Z,95726.16
2023-01-08T11:49:51.091Z,95729.81
2023-01-08T11:52:36.682Z,95726.75
2023-01-08T11:55:30.541Z,95713.41
2023-01-08T11:58:30.610Z,95716.25
2023-01-08T12:01:35.409Z,95723.88
2023-01-08T12:04:36.340Z,95714.50
2023-01-08T12:07:20.117Z,95711.75
2023-01-08T12:10:00.311Z,95703.72
2023-01-08T12:12:59.241Z,95710.63
2023-01-08T12:15:49.590Z,95714.84
2023-01-08T12:18:58.156Z,95704.00
2023-01-08T12:21:33.033Z,95702.44
2023-01-08T12:24:23.968Z,95710.28
2023-01-08T12:27:17.716Z,95709.06
2023-01-08T12:30:25.013Z,95709.69
2023-01-08T12:33:20.061Z,95708.09
2023-01-08T12:35:52.724Z,95703.22
2023-01-08T12:38:44.575Z,95705.00
2023-01-08T12:41:18.713Z,95702.34
2023-01-08T12:44:05.444Z,95694.66
2023-01-08T12:46:36.065Z,95691.81
2023-01-08T12:49:06.291Z,95685.38
2023-01-08T12:51:48.403Z,95672.81
2023-01-08T12:54:32.351Z,95665.56
2023-01-08T12:57:10.220Z,95674.44
2023-01-08T13:00:06.003Z,95668.00
2023-01-08T13:02:52.902Z,95652.66
2023-01-08T13:05:19.701Z,95659.91
2023-01-08T13:07:57.549Z,95650.66
2023-01-08T13:10:41.589Z,95643.00
2023-01-08T13:13:27.047Z,95634.16
2023-01-08T13:16:17.350Z,95634.59
2023-01-08T13:18:59.822Z,95629.75
2023-01-08T13:21:51.057Z,95614.84
2023-01-08T13:24:34.627Z,95619.69
2023-01-08T13:27:16.918Z,95621.31
2023-01-08T13:29:49.822Z,95617.72
2023-01-08T13:32:47.277Z,95609.28
2023-01-08T13:35:17.318Z,95607.25
2023-01-08T13:37:53.249Z,95611.72
2023-01-08T13:40:36.443Z,95594.78
2023-01-08T13:43:06.207Z,95612.56
2023-01-08T13:45:33.771Z,95597.63
2023-01-08T13:48:01.761Z,95597.22
2023-01-08T13:50:30.516Z,95588.75
2023-01-08T13:53:04.200Z,95605.28
2023-01-08T13:55:40.906Z,95608.06
2023-01-08T13:58:18.736Z,95612.91
2023-01-08T14:00:50.459Z,95616.94
2023-01-08T14:03:33.346Z,95608.88
2023-01-08T14:06:17.010Z,95614.16
2023-01-08T14:09:03.720Z,95619.03
2023-01-08T14:11:45.095Z,95598.06
2023-01-08T14:14:22.829Z,95613.78
2023-01-08T14:16:52.448Z,95610.97
2023-01-08T14:19:23.781Z,95620.84
2023-01-08T14:21:58.093Z,95628.31
2023-01-08T14:24:26.298Z,95617.00
2023-01-08T14:26:57.007Z,95598.44
2023-01-08T14:29:29.568Z,95604.25
2023-01-08T14:32:00.328Z,95602.03
2023-01-08T14:34:31.101Z,95591.94
2023-01-08T14:36:58.070Z,95597.25
2023-01-08T14:39:39.883Z,95608.09
2023-01-08T14:42:42.313Z,95619.38
2023-01-08T14:45:24.738Z,95626.63
2023-01-08T14:47:56.584Z,95637.75
2023-01-08T14:50:33.173Z,95635.16
2023-01-08T14:53:14.918Z,95629.06
2023-01-08T14:55:48.881Z,95627.88
2023-01-08T14:58:23.392Z,95625.47
2023-01-08T15:00:57.974Z,95620.66
2023-01-08T15:03:41.191Z,95620.22
2023-01-08T15:06:11.350Z,95621.03
2023-01-08T15:08:44.808Z,95616.59
2023-01-08T15:11:36.090Z,95619.03
2023-01-08T15:14:14.673Z,95617.03
2023-01-08T15:16:43.187Z,95621.03
2023-01-08T15:19:19.748Z,95602.88
2023-01-08T15:21:52.775Z,95597.66
2023-01-08T15:24:28.052Z,95591.59
2023-01-08T15:26:55.510Z,95596.06
2023-01-08T15:29:33.327Z,95604.94
2023-01-08T15:32:15.079Z,95599.28
2023-01-08T15:34:43.721Z,95596.66
2023-01-08T15:37:11.380Z,95598.47
2023-01-08T15:39:38.315Z,95594.66
2023-01-08T15:42:50.281Z,95584.00
2023-01-08T15:45:28.104Z,95575.13
2023-01-08T15:47:55.453Z,95561.44
2023-01-08T15:50:23.986Z,95567.84
2023-01-08T15:52:50.866Z,95557.38
2023-01-08T15:55:21.190Z,95557.19
2023-01-08T15:57:48.595Z,95553.38
2023-01-08T16:00:18.678Z,95546.72
2023-01-08T16:02:51.977Z,95530.00
2023-01-08T16:05:21.437Z,95530.81
2023-01-08T16:07:48.372Z,95530.81
2023-01-08T16:10:16.916Z,95538.84
2023-01-08T16:12:44.041Z,95530.81
2023-01-08T16:15:12.593Z,95538.47
2023-01-08T16:17:39.770Z,95524.38
2023-01-08T16:20:08.515Z,95530.41
2023-01-08T16:22:35.434Z,95522.34
2023-01-08T16:25:02.372Z,95521.53
2023-01-08T16:27:32.038Z,95507.88
2023-01-08T16:29:59.193Z,95500.84
2023-01-08T16:32:26.001Z,95498.41
2023-01-08T16:34:54.887Z,95485.53
2023-01-08T16:37:22.505Z,95477.28
2023-01-08T16:39:49.685Z,95479.88
2023-01-08T16:42:16.572Z,95474.84
2023-01-08T16:44:43.409Z,95476.47
2023-01-08T16:47:10.328Z,95477.69
2023-01-08T16:49:37.168Z,95473.25
2023-01-08T16:52:04.219Z,95457.56
2023-01-08T16:54:31.889Z,95442.69
2023-01-08T16:56:58.751Z,95439.47
2023-01-08T16:59:26.957Z,95439.03
2023-01-08T17:01:53.894Z,95441.84
2023-01-08T17:04:20.971Z,95437.03
2023-01-08T17:06:47.864Z,95423.97
2023-01-08T17:09:15.120Z,95412.50
2023-01-08T17:11:42.817Z,95416.09
2023-01-08T17:14:10.230Z,95412.03
2023-01-08T17:16:37.524Z,95396.78
2023-01-08T17:19:04.833Z,95389.88
2023-01-08T17:21:33.633Z,95387.84
2023-01-08T17:24:00.642Z,95401.09
2023-01-08T17:26:27.565Z,95395.88
2023-01-08T17:28:54.993Z,95386.81
2023-01-08T17:31:21.977Z,95387.38
2023-01-08T17:33:50.602Z,95382.16
2023-01-08T17:36:24.127Z,95375.94
2023-01-08T17:38:53.509Z,95379.94
2023-01-08T17:41:40.891Z,95398.59
2023-01-08T17:44:10.025Z,95402.59
2023-01-08T17:46:43.826Z,95402.38
2023-01-08T17:49:14.679Z,95400.16
2023-01-08T17:51:42.712Z,95406.56
2023-01-08T17:54:15.046Z,95405.94
2023-01-08T17:56:43.109Z,95409.53
2023-01-08T17:59:18.028Z,95396.88
2023-01-08T18:01:45.826Z,95400.09
2023-01-08T18:04:14.179Z,95388.28
2023-01-08T18:06:42.070Z,95393.72
2023-01-08T18:09:12.493Z,95388.88
2023-01-08T18:11:41.489Z,95377.44
2023-01-08T18:14:14.544Z,95370.84
2023-01-08T18:16:45.543Z,95356.19
2023-01-08T18:19:13.621Z,95355.16
2023-01-08T18:21:40.503Z,95355.47
2023-01-08T18:24:07.934Z,95349.53
2023-01-08T18:26:34.776Z,95355.16
2023-01-08T18:29:01.743Z,95355.97
2023-01-08T18:31:29.537Z,95350.31
2023-01-08T18:33:56.664Z,95349.28
2023-01-08T18:36:23.465Z,95323.84
2023-01-08T18:38:51.461Z,95309.75
2023-01-08T18:41:39.179Z,95306.56
2023-01-08T18:44:09.087Z,95305.72
2023-01-08T18:46:36.202Z,95306.56
2023-01-08T18:49:03.222Z,95302.16
2023-01-08T18:51:30.083Z,95297.53
2023-01-08T18:53:56.935Z,95292.13
2023-01-08T18:56:36.090Z,95288.13
2023-01-08T18:59:05.818Z,95288.53
2023-01-08T19:01:35.160Z,95288.53
2023-01-08T19:04:02.172Z,95284.50
2023-01-08T19:06:29.051Z,95288.34
2023-01-08T19:08:58.829Z,95286.91
2023-01-08T19:11:26.172Z,95292.56
2023-01-08T19:13:57.338Z,95295.16
2023-01-08T19:16:24.632Z,95290.13
2023-01-08T19:18:51.642Z,95280.06
2023-01-08T19:21:19.647Z,95273.63
2023-01-08T19:23:47.531Z,95261.00
2023-01-08T19:26:17.580Z,95248.38
2023-01-08T19:28:44.859Z,95252.34
2023-01-08T19:31:17.659Z,95249.16
2023-01-08T19:33:46.561Z,95242.34
2023-01-08T19:36:16.271Z,95232.31
2023-01-08T19:38:44.376Z,95218.66
2023-01-08T19:41:30.980Z,95212.22
2023-01-08T19:43:59.265Z,95196.78
2023-01-08T19:46:26.483Z,95199.78
2023-01-08T19:48:57.024Z,95197.97
2023-01-08T19:51:24.937Z,95190.16
2023-01-08T19:53:53.286Z,95190.75
2023-01-08T19:56:20.196Z,95183.31
2023-01-08T19:58:47.308Z,95188.34
2023-01-08T20:01:21.352Z,95187.34
2023-01-08T20:03:49.091Z,95175.31
2023-01-08T20:06:22.780Z,95177.13
2023-01-08T20:08:59.297Z,95167.69
2023-01-08T20:11:27.864Z,95172.09
2023-01-08T20:13:56.275Z,95165.88
2023-01-08T20:16:24.467Z,95161.66
2023-01-08T20:18:51.374Z,95152.44
2023-01-08T20:21:23.927Z,95148.41
2023-01-08T20:24:04.472Z,95137.16
2023-01-08T20:26:32.082Z,95131.13
2023-01-08T20:28:59.639Z,95134.75
2023-01-08T20:31:32.819Z,95126.72
2023-01-08T20:34:01.778Z,95120.72
2023-01-08T20:36:32.516Z,95113.50
2023-01-08T20:39:04.852Z,95120.72
2023-01-08T20:41:31.689Z,95123.50
2023-01-08T20:43:58.644Z,95117.09
2023-01-08T20:46:28.570Z,95111.88
2023-01-08T20:49:03.596Z,95117.72
2023-01-08T20:51:36.527Z,95106.25
2023-01-08T20:54:06.230Z,95099.84
2023-01-08T20:56:33.383Z,95110.06
2023-01-08T20:59:01.939Z,95108.66
2023-01-08T21:01:35.506Z,95110.88
2023-01-08T21:04:05.802Z,95116.69
2023-01-08T21:06:34.662Z,95102.25
2023-01-08T21:09:06.791Z,95113.88
2023-01-08T21:11:36.878Z,95111.69
2023-01-08T21:14:04.956Z,95107.84
2023-01-08T21:16:35.315Z,95100.03
2023-01-08T21:19:02.739Z,95110.28
2023-01-08T21:21:33.064Z,95097.41
2023-01-08T21:24:04.361Z,95089.38
2023-01-08T21:26:37.452Z,95086.59
2023-01-08T21:29:08.847Z,95092.41
2023-01-08T21:31:36.681Z,95084.59
2023-01-08T21:34:05.332Z,95091.38
2023-01-08T21:36:32.852Z,95081.75
2023-01-08T21:39:01.424Z,95082.56
2023-01-08T21:41:48.735Z,95083.38
2023-01-08T21:44:48.628Z,95080.94
2023-01-08T21:47:17.684Z,95070.94
2023-01-08T21:49:45.430Z,95082.97
2023-01-08T21:52:31.046Z,95076.16
2023-01-08T21:54:58.173Z,95070.13
2023-01-08T21:57:28.013Z,95066.50
2023-01-08T21:59:55.736Z,95058.66
2023-01-08T22:02:24.411Z,95053.25
2023-01-08T22:04:55.619Z,95051.66
2023-01-08T22:07:23.094Z,95054.84
2023-01-08T22:09:49.924Z,95045.03
2023-01-08T22:12:17.240Z,95038.38
2023-01-08T22:14:44.124Z,95035.59
2023-01-08T22:17:11.186Z,95023.53
2023-01-08T22:19:38.952Z,95036.81
2023-01-08T22:22:08.224Z,95029.56
2023-01-08T22:24:37.184Z,95032.78
2023-01-08T22:27:03.956Z,95015.94
2023-01-08T22:29:31.004Z,95031.19
2023-01-08T22:31:57.973Z,95030.38
2023-01-08T22:34:24.813Z,95013.56
2023-01-08T22:36:53.069Z,95012.75
2023-01-08T22:39:19.899Z,95004.31
2023-01-08T22:41:46.858Z,94991.44
2023-01-08T22:44:14.452Z,94982.06
2023-01-08T22:46:41.595Z,94977.84
2023-01-08T22:49:11.440Z,94968.22
2023-01-08T22:51:38.811Z,94962.00
2023-01-08T22:54:05.760Z,94963.81
2023-01-08T22:56:32.804Z,94953.97
2023-01-08T22:58:59.614Z,94958.78
2023-01-08T23:01:27.608Z,94965.81
2023-01-08T23:03:59.004Z,94963.81
2023-01-08T23:06:29.101Z,94957.81
2023-01-08T23:08:56.460Z,94948.56
2023-01-08T23:11:24.820Z,94942.97
2023-01-08T23:13:51.926Z,94948.38
2023-01-08T23:16:24.253Z,94928.50
2023-01-08T23:18:53.362Z,94929.13
2023-01-08T23:21:23.619Z,94922.47
2023-01-08T23:23:50.849Z,94912.50
2023-01-08T23:26:27.595Z,94901.06
2023-01-08T23:28:56.742Z,94898.84
2023-01-08T23:31:30.891Z,94895.63
2023-01-08T23:33:58.226Z,94892.44
2023-01-08T23:36:25.806Z,94889.22
2023-01-08T23:38:55.640Z,94880.19
2023-01-08T23:41:33.058Z,94873.75
2023-01-08T23:44:08.125Z,94866.53
2023-01-08T23:46:35.921Z,94859.16
2023-01-08T23:49:03.377Z,94857.78
2023-01-08T23:51:30.614Z,94855.16
2023-01-08T23:53:57.402Z,94862.97
2023-01-08T23:56:24.403Z,94871.78
2023-01-08T23:58:51.341Z,94863.53
